createdAt,value
2024-03-14T00:02:33.728Z,14.65
2024-03-14T00:05:22.759Z,14.65
2024-03-14T00:08:10.513Z,14.61
2024-03-14T00:10:58.683Z,14.60
2024-03-14T00:13:46.929Z,14.55
2024-03-14T00:16:35.289Z,14.57
2024-03-14T00:19:24.391Z,14.57
2024-03-14T00:22:13.566Z,14.50
2024-03-14T00:25:01.250Z,14.49
2024-03-14T00:27:49.034Z,14.39
2024-03-14T00:30:38.815Z,14.34
2024-03-14T00:33:26.454Z,14.28
2024-03-14T00:36:16.284Z,14.34
2024-03-14T00:39:04.077Z,14.27
2024-03-14T00:41:51.854Z,14.27
2024-03-14T00:44:43.607Z,14.27
2024-03-14T00:47:35.154Z,14.22
2024-03-14T00:50:24.267Z,14.19
2024-03-14T00:53:13.129Z,14.16
2024-03-14T00:56:02.969Z,14.10
2024-03-14T00:58:50.936Z,14.10
2024-03-14T01:01:46.118Z,14.11
2024-03-14T01:04:35.500Z,14.04
2024-03-14T01:07:26.059Z,14.02
2024-03-14T01:10:14.954Z,14.00
2024-03-14T01:13:02.553Z,13.90
2024-03-14T01:15:50.181Z,13.94
2024-03-14T01:18:40.829Z,13.80
2024-03-14T01:21:28.923Z,13.79
2024-03-14T01:24:16.682Z,13.78
2024-03-14T01:27:04.633Z,13.75
2024-03-14T01:29:53.493Z,13.70
2024-03-14T01:32:41.636Z,13.60
2024-03-14T01:35:30.463Z,13.62
2024-03-14T01:38:18.120Z,13.66
2024-03-14T01:41:21.555Z,13.63
2024-03-14T01:44:09.271Z,13.64
2024-03-14T01:46:57.209Z,13.55
2024-03-14T01:49:46.776Z,13.58
2024-03-14T01:52:37.162Z,13.55
2024-03-14T01:55:29.730Z,13.61
2024-03-14T01:58:26.468Z,13.61
2024-03-14T02:01:14.417Z,13.57
2024-03-14T02:04:21.837Z,13.53
2024-03-14T02:07:15.165Z,13.55
2024-03-14T02:10:02.965Z,13.63
2024-03-14T02:12:50.562Z,13.63
2024-03-14T02:15:40.742Z,13.53
2024-03-14T02:18:28.468Z,13.61
2024-03-14T02:21:16.314Z,13.60
2024-03-14T02:24:04.195Z,13.59
2024-03-14T02:26:53.002Z,13.56
2024-03-14T02:29:42.959Z,13.52
2024-03-14T02:32:30.823Z,13.53
2024-03-14T02:35:18.540Z,13.55
2024-03-14T02:38:08.673Z,13.52
2024-03-14T02:40:56.318Z,13.53
2024-03-14T02:43:44.863Z,13.53
2024-03-14T02:46:32.508Z,13.55
2024-03-14T02:49:25.002Z,13.48
2024-03-14T02:52:17.122Z,13.46
2024-03-14T02:55:08.408Z,13.49
2024-03-14T02:57:56.389Z,13.47
2024-03-14T03:00:44.075Z,13.45
2024-03-14T03:03:31.734Z,13.45
2024-03-14T03:06:24.789Z,13.41
2024-03-14T03:09:16.197Z,13.42
2024-03-14T03:12:06.515Z,13.42
2024-03-14T03:15:00.458Z,13.42
2024-03-14T03:17:49.426Z,13.37
2024-03-14T03:20:39.202Z,13.39
2024-03-14T03:23:28.091Z,13.33
2024-03-14T03:26:15.780Z,13.38
2024-03-14T03:29:03.733Z,13.37
2024-03-14T03:31:51.422Z,13.36
2024-03-14T03:34:40.669Z,13.37
2024-03-14T03:37:30.135Z,13.37
2024-03-14T03:40:25.263Z,13.36
2024-03-14T03:43:14.025Z,13.39
2024-03-14T03:46:03.021Z,13.32
2024-03-14T03:48:50.841Z,13.33
2024-03-14T03:51:39.027Z,13.30
2024-03-14T03:54:26.689Z,13.28
2024-03-14T03:57:15.078Z,13.26
2024-03-14T04:00:16.968Z,13.23
2024-03-14T04:03:10.304Z,13.22
2024-03-14T04:06:01.299Z,13.08
2024-03-14T04:08:49.175Z,13.13
2024-03-14T04:11:36.943Z,13.14
2024-03-14T04:14:24.540Z,13.16
2024-03-14T04:17:14.088Z,13.16
2024-03-14T04:20:01.686Z,13.16
2024-03-14T04:22:49.824Z,13.10
2024-03-14T04:25:38.612Z,13.07
2024-03-14T04:28:26.972Z,13.13
2024-03-14T04:31:14.740Z,13.12
2024-03-14T04:34:05.995Z,13.06
2024-03-14T04:36:57.388Z,12.96
2024-03-14T04:39:45.174Z,12.98
2024-03-14T04:42:32.906Z,12.99
2024-03-14T04:45:22.912Z,13.00
2024-03-14T04:48:11.180Z,12.98
2024-03-14T04:51:00.809Z,12.94
2024-03-14T04:53:48.583Z,12.93
2024-03-14T04:56:37.051Z,12.91
2024-03-14T04:59:25.673Z,12.85
2024-03-14T05:02:13.297Z,12.85
2024-03-14T05:05:02.102Z,12.82
2024-03-14T05:07:50.421Z,12.79
2024-03-14T05:10:39.474Z,12.71
2024-03-14T05:13:29.149Z,12.68
2024-03-14T05:16:17.921Z,12.68
2024-03-14T05:19:05.804Z,12.68
2024-03-14T05:21:53.500Z,12.65
2024-03-14T05:24:41.252Z,12.57
2024-03-14T05:27:29.944Z,12.48
2024-03-14T05:30:19.667Z,12.48
2024-03-14T05:33:07.524Z,12.49
2024-03-14T05:35:55.546Z,12.51
2024-03-14T05:38:44.353Z,12.47
2024-03-14T05:41:32.101Z,12.49
2024-03-14T05:44:20.278Z,12.48
2024-03-14T05:47:10.884Z,12.43
2024-03-14T05:49:59.897Z,12.45
2024-03-14T05:52:48.804Z,12.41
2024-03-14T05:55:38.892Z,12.41
2024-03-14T05:58:26.808Z,12.41
2024-03-14T06:01:16.889Z,12.40
2024-03-14T06:04:06.307Z,12.40
2024-03-14T06:07:00.340Z,12.38
2024-03-14T06:09:52.092Z,12.40
2024-03-14T06:12:41.118Z,12.38
2024-03-14T06:15:30.451Z,12.36
2024-03-14T06:18:22.658Z,12.37
2024-03-14T06:21:12.683Z,12.42
2024-03-14T06:24:01.046Z,12.44
2024-03-14T06:26:50.234Z,12.47
2024-03-14T06:29:40.120Z,12.59
2024-03-14T06:32:28.401Z,12.70
2024-03-14T06:35:17.575Z,12.84
2024-03-14T06:38:06.771Z,12.84
2024-03-14T06:40:56.219Z,12.83
2024-03-14T06:43:44.414Z,12.78
2024-03-14T06:46:33.245Z,12.81
2024-03-14T06:49:21.085Z,12.98
2024-03-14T06:52:11.117Z,13.22
2024-03-14T06:54:59.122Z,13.46
2024-03-14T06:57:48.899Z,13.52
2024-03-14T07:00:41.547Z,13.74
2024-03-14T07:03:29.857Z,13.92
2024-03-14T07:06:17.634Z,14.02
2024-03-14T07:09:11.334Z,14.12
2024-03-14T07:12:00.496Z,14.16
2024-03-14T07:14:48.650Z,14.42
2024-03-14T07:17:36.470Z,14.65
2024-03-14T07:20:34.340Z,14.75
2024-03-14T07:23:24.592Z,14.76
2024-03-14T07:26:17.310Z,14.81
2024-03-14T07:29:06.749Z,14.92
2024-03-14T07:31:55.022Z,15.09
2024-03-14T07:34:46.216Z,15.22
2024-03-14T07:37:35.806Z,15.31
2024-03-14T07:40:33.912Z,15.54
2024-03-14T07:43:22.712Z,15.63
2024-03-14T07:46:20.455Z,15.74
2024-03-14T07:49:10.786Z,15.94
2024-03-14T07:51:59.700Z,16.17
2024-03-14T07:54:48.926Z,16.13
2024-03-14T07:57:37.980Z,15.89
2024-03-14T08:00:29.499Z,15.63
2024-03-14T08:03:18.017Z,15.35
2024-03-14T08:06:09.585Z,15.16
2024-03-14T08:08:57.444Z,15.02
2024-03-14T08:11:47.517Z,14.95
2024-03-14T08:14:45.194Z,14.83
2024-03-14T08:17:33.055Z,14.81
2024-03-14T08:20:26.044Z,14.74
2024-03-14T08:23:16.911Z,14.80
2024-03-14T08:26:08.367Z,14.94
2024-03-14T08:29:01.701Z,14.99
2024-03-14T08:31:50.272Z,15.16
2024-03-14T08:37:44.902Z,15.38
2024-03-14T08:40:36.232Z,15.52
2024-03-14T08:43:26.418Z,15.56
2024-03-14T08:46:16.676Z,15.75
2024-03-14T08:49:05.968Z,15.90
2024-03-14T08:51:54.861Z,15.99
2024-03-14T08:54:46.373Z,15.98
2024-03-14T08:57:35.117Z,16.00
2024-03-14T09:00:23.773Z,16.06
2024-03-14T09:03:11.733Z,16.17
2024-03-14T09:06:06.600Z,16.14
2024-03-14T09:09:08.124Z,16.16
2024-03-14T09:11:57.841Z,16.23
2024-03-14T09:14:45.652Z,16.35
2024-03-14T09:17:33.535Z,16.38
2024-03-14T09:20:22.189Z,16.34
2024-03-14T09:23:17.365Z,16.35
2024-03-14T09:26:07.535Z,16.30
2024-03-14T09:29:02.180Z,16.12
2024-03-14T09:31:50.921Z,16.21
2024-03-14T09:34:39.875Z,16.12
2024-03-14T09:37:28.144Z,16.17
2024-03-14T09:40:17.571Z,16.23
2024-03-14T09:43:06.182Z,16.19
2024-03-14T09:45:56.389Z,16.15
2024-03-14T09:48:44.192Z,16.12
2024-03-14T09:51:34.423Z,16.18
2024-03-14T09:54:29.241Z,16.07
2024-03-14T09:57:18.308Z,16.15
2024-03-14T10:00:13.362Z,16.10
2024-03-14T10:03:03.012Z,16.16
2024-03-14T10:05:58.024Z,16.24
2024-03-14T10:09:17.650Z,16.36
2024-03-14T10:12:16.044Z,16.27
2024-03-14T10:15:14.110Z,16.48
2024-03-14T10:18:03.055Z,16.41
2024-03-14T10:20:54.208Z,16.35
2024-03-14T10:23:43.808Z,16.55
2024-03-14T10:26:32.302Z,16.79
2024-03-14T10:29:23.918Z,16.92
2024-03-14T10:32:20.220Z,16.90
2024-03-14T10:35:13.312Z,16.90
2024-03-14T10:38:16.893Z,16.88
2024-03-14T10:41:12.737Z,16.88
2024-03-14T10:44:10.391Z,17.12
2024-03-14T10:47:00.598Z,17.68
2024-03-14T10:50:17.500Z,19.28
2024-03-14T10:53:14.287Z,20.64
2024-03-14T10:56:08.439Z,21.70
2024-03-14T10:59:05.477Z,22.47
2024-03-14T11:01:56.034Z,23.24
2024-03-14T11:04:49.151Z,23.83
2024-03-14T11:07:44.622Z,23.99
2024-03-14T11:10:36.452Z,24.14
2024-03-14T11:13:38.863Z,23.77
2024-03-14T11:16:44.650Z,23.70
2024-03-14T11:19:38.440Z,23.49
2024-03-14T11:22:28.440Z,23.60
2024-03-14T11:25:22.299Z,23.84
2024-03-14T11:28:13.857Z,24.45
2024-03-14T11:31:04.569Z,24.57
2024-03-14T11:34:00.092Z,24.69
2024-03-14T11:36:52.089Z,24.74
2024-03-14T11:39:41.534Z,25.03
2024-03-14T11:42:30.325Z,25.53
2024-03-14T11:45:20.456Z,25.67
2024-03-14T11:48:10.155Z,25.77
2024-03-14T11:51:01.310Z,26.17
2024-03-14T11:53:52.510Z,26.58
2024-03-14T11:56:41.990Z,26.99
2024-03-14T11:59:33.198Z,27.21
2024-03-14T12:02:22.918Z,27.25
2024-03-14T12:05:21.231Z,27.28
2024-03-14T12:08:12.034Z,27.18
2024-03-14T12:11:03.057Z,26.81
2024-03-14T12:13:54.391Z,25.97
2024-03-14T12:16:47.828Z,25.81
2024-03-14T12:19:35.550Z,25.39
2024-03-14T12:22:23.484Z,25.19
2024-03-14T12:25:22.133Z,24.98
2024-03-14T12:28:12.392Z,24.76
2024-03-14T12:31:03.142Z,25.11
2024-03-14T12:33:51.937Z,25.38
2024-03-14T12:36:40.651Z,25.50
2024-03-14T12:39:31.107Z,25.18
2024-03-14T12:42:23.538Z,24.76
2024-03-14T12:45:18.736Z,24.65
2024-03-14T12:48:08.405Z,24.62
2024-03-14T12:51:15.429Z,24.58
2024-03-14T12:54:06.082Z,24.49
2024-03-14T12:56:54.936Z,25.02
2024-03-14T12:59:50.788Z,25.53
2024-03-14T13:02:38.443Z,25.80
2024-03-14T13:05:30.525Z,26.16
2024-03-14T13:08:21.837Z,25.75
2024-03-14T13:11:22.278Z,24.96
2024-03-14T13:14:17.200Z,24.35
2024-03-14T13:17:14.969Z,25.09
2024-03-14T13:20:14.627Z,25.35
2024-03-14T13:23:04.567Z,25.21
2024-03-14T13:25:52.681Z,25.17
2024-03-14T13:28:42.199Z,25.43
2024-03-14T13:31:31.450Z,25.50
2024-03-14T13:34:22.267Z,25.58
2024-03-14T13:37:10.582Z,25.31
2024-03-14T13:39:59.634Z,25.32
2024-03-14T13:42:49.782Z,25.42
2024-03-14T13:45:48.347Z,25.48
2024-03-14T13:48:38.543Z,25.52
2024-03-14T13:51:28.486Z,25.47
2024-03-14T13:54:25.542Z,25.31
2024-03-14T13:57:18.016Z,25.34
2024-03-14T14:00:13.025Z,25.47
2024-03-14T14:03:05.491Z,25.61
2024-03-14T14:06:01.740Z,25.67
2024-03-14T14:08:54.647Z,25.81
2024-03-14T14:11:44.512Z,25.89
2024-03-14T14:14:35.048Z,26.09
2024-03-14T14:17:25.793Z,26.52
2024-03-14T14:20:13.752Z,27.27
2024-03-14T14:23:01.812Z,27.91
2024-03-14T14:25:49.563Z,28.26
2024-03-14T14:28:42.696Z,28.59
2024-03-14T14:31:31.727Z,28.67
2024-03-14T14:34:21.245Z,28.56
2024-03-14T14:37:10.267Z,28.25
2024-03-14T14:39:59.094Z,27.79
2024-03-14T14:42:48.097Z,27.76
2024-03-14T14:45:38.696Z,27.63
2024-03-14T14:48:28.083Z,27.61
2024-03-14T14:51:16.073Z,27.54
2024-03-14T14:54:07.439Z,27.57
2024-03-14T14:56:55.823Z,27.31
2024-03-14T14:59:43.581Z,26.91
2024-03-14T15:02:31.399Z,26.57
2024-03-14T15:05:19.740Z,26.56
2024-03-14T15:08:08.843Z,26.53
2024-03-14T15:10:58.691Z,26.42
2024-03-14T15:13:50.042Z,26.01
2024-03-14T15:16:38.599Z,25.71
2024-03-14T15:19:26.932Z,25.49
2024-03-14T15:22:23.794Z,25.45
2024-03-14T15:25:16.539Z,25.37
2024-03-14T15:28:05.251Z,25.18
2024-03-14T15:30:54.296Z,24.88
2024-03-14T15:33:43.899Z,24.60
2024-03-14T15:36:33.165Z,24.35
2024-03-14T15:39:21.112Z,24.13
2024-03-14T15:42:09.237Z,23.96
2024-03-14T15:45:06.856Z,23.80
2024-03-14T15:47:55.811Z,23.71
2024-03-14T15:50:45.751Z,23.56
2024-03-14T15:53:35.277Z,23.56
2024-03-14T15:56:23.309Z,23.54
2024-03-14T15:59:12.066Z,23.53
2024-03-14T16:02:03.413Z,23.53
2024-03-14T16:04:51.451Z,23.52
2024-03-14T16:07:41.113Z,23.55
2024-03-14T16:10:31.963Z,23.49
2024-03-14T16:13:19.615Z,23.48
2024-03-14T16:16:07.644Z,23.42
2024-03-14T16:19:05.847Z,23.32
2024-03-14T16:22:01.078Z,23.24
2024-03-14T16:24:58.723Z,23.10
2024-03-14T16:27:54.028Z,22.92
2024-03-14T16:30:44.478Z,22.80
2024-03-14T16:33:36.577Z,22.65
2024-03-14T16:36:26.133Z,22.53
2024-03-14T16:39:21.084Z,22.41
2024-03-14T16:42:11.894Z,22.32
2024-03-14T16:45:09.138Z,22.21
2024-03-14T16:48:09.194Z,22.09
2024-03-14T16:51:06.098Z,21.99
2024-03-14T16:53:54.886Z,21.90
2024-03-14T16:56:44.625Z,21.80
2024-03-14T16:59:38.325Z,21.75
2024-03-14T17:02:38.682Z,21.71
2024-03-14T17:05:32.583Z,21.63
2024-03-14T17:11:12.478Z,21.54
2024-03-14T17:14:00.275Z,21.47
2024-03-14T17:16:55.463Z,21.37
2024-03-14T17:19:51.627Z,21.31
2024-03-14T17:22:44.416Z,21.21
2024-03-14T17:25:34.548Z,21.15
2024-03-14T17:28:22.612Z,21.07
2024-03-14T17:31:10.757Z,20.97
2024-03-14T17:33:58.724Z,20.88
2024-03-14T17:36:48.947Z,20.80
2024-03-14T17:39:38.083Z,20.70
2024-03-14T17:42:27.392Z,20.65
2024-03-14T17:45:26.782Z,20.60
2024-03-14T17:48:14.872Z,20.52
2024-03-14T17:51:02.871Z,20.41
2024-03-14T17:53:51.374Z,20.33
2024-03-14T17:56:45.724Z,20.29
2024-03-14T17:59:37.206Z,20.21
2024-03-14T18:02:30.618Z,20.16
2024-03-14T18:05:21.698Z,20.10
2024-03-14T18:08:10.721Z,20.07
2024-03-14T18:11:01.531Z,20.03
2024-03-14T18:13:50.964Z,19.99
2024-03-14T18:16:41.086Z,19.94
2024-03-14T18:19:32.603Z,19.90
2024-03-14T18:22:25.332Z,19.88
2024-03-14T18:25:23.075Z,19.84
2024-03-14T18:28:13.708Z,19.81
2024-03-14T18:31:05.932Z,19.76
2024-03-14T18:33:54.471Z,19.70
2024-03-14T18:36:46.902Z,19.64
2024-03-14T18:39:38.336Z,19.62
2024-03-14T18:42:27.324Z,19.56
2024-03-14T18:45:18.446Z,19.51
2024-03-14T18:48:13.933Z,19.49
2024-03-14T18:51:04.798Z,19.34
2024-03-14T18:53:55.715Z,19.33
2024-03-14T18:56:49.079Z,19.31
2024-03-14T18:59:38.753Z,19.24
2024-03-14T19:02:30.119Z,19.26
2024-03-14T19:05:28.695Z,19.22
2024-03-14T19:08:21.342Z,19.20
2024-03-14T19:11:10.924Z,19.21
2024-03-14T19:14:01.538Z,19.18
2024-03-14T19:16:52.799Z,19.25
2024-03-14T19:19:42.302Z,19.29
2024-03-14T19:22:39.082Z,19.25
2024-03-14T19:25:28.026Z,19.29
2024-03-14T19:28:18.407Z,19.29
2024-03-14T19:31:11.718Z,19.27
2024-03-14T19:34:00.961Z,19.25
2024-03-14T19:36:50.838Z,19.24
2024-03-14T19:39:41.221Z,19.23
2024-03-14T19:42:31.597Z,19.23
2024-03-14T19:45:30.142Z,19.21
2024-03-14T19:48:20.322Z,19.20
2024-03-14T19:51:09.609Z,19.16
2024-03-14T19:54:11.553Z,19.13
2024-03-14T19:57:02.386Z,19.10
2024-03-14T19:59:51.231Z,19.10
2024-03-14T20:02:43.283Z,19.08
2024-03-14T20:05:33.281Z,19.09
2024-03-14T20:08:21.573Z,19.08
2024-03-14T20:11:18.243Z,19.06
2024-03-14T20:14:06.986Z,19.08
2024-03-14T20:16:57.329Z,19.09
2024-03-14T20:19:45.611Z,19.10
2024-03-14T20:22:35.741Z,19.12
2024-03-14T20:25:26.083Z,19.09
2024-03-14T20:28:13.947Z,19.07
2024-03-14T20:31:03.339Z,19.07
2024-03-14T20:33:51.586Z,19.08
2024-03-14T20:36:45.746Z,19.02
2024-03-14T20:39:42.610Z,19.02
2024-03-14T20:42:41.856Z,19.03
2024-03-14T20:45:41.307Z,19.04
2024-03-14T20:48:31.717Z,19.04
2024-03-14T20:51:20.895Z,19.04
2024-03-14T20:54:12.439Z,19.04
2024-03-14T20:57:02.853Z,19.02
2024-03-14T21:00:02.083Z,19.00
2024-03-14T21:02:51.761Z,19.00
2024-03-14T21:05:48.961Z,19.00
2024-03-14T21:08:58.442Z,18.98
2024-03-14T21:11:47.730Z,18.94
2024-03-14T21:14:37.777Z,18.94
2024-03-14T21:17:26.579Z,18.94
2024-03-14T21:20:24.832Z,18.91
2024-03-14T21:23:13.190Z,18.91
2024-03-14T21:26:01.736Z,18.89
2024-03-14T21:28:49.859Z,18.81
2024-03-14T21:31:38.544Z,18.70
2024-03-14T21:34:26.237Z,18.71
2024-03-14T21:37:15.775Z,18.69
2024-03-14T21:40:06.968Z,18.66
2024-03-14T21:42:54.776Z,18.59
2024-03-14T21:45:43.117Z,18.57
2024-03-14T21:48:34.467Z,18.49
2024-03-14T21:51:24.900Z,18.45
2024-03-14T21:54:14.910Z,18.42
2024-03-14T21:57:03.979Z,18.40
2024-03-14T21:59:53.152Z,18.38
2024-03-14T22:02:40.724Z,18.36
2024-03-14T22:05:28.446Z,18.27
2024-03-14T22:08:20.592Z,18.19
2024-03-14T22:11:08.320Z,18.15
2024-03-14T22:13:58.787Z,18.12
2024-03-14T22:16:48.310Z,18.11
2024-03-14T22:19:39.756Z,18.11
2024-03-14T22:22:29.389Z,18.13
2024-03-14T22:25:18.255Z,18.14
2024-03-14T22:28:09.707Z,18.16
2024-03-14T22:31:11.563Z,18.17
2024-03-14T22:34:00.475Z,18.14
2024-03-14T22:36:50.080Z,18.11
2024-03-14T22:39:39.302Z,18.08
2024-03-14T22:42:27.565Z,18.04
2024-03-14T22:45:17.246Z,18.01
2024-03-14T22:48:06.129Z,17.91
2024-03-14T22:50:55.398Z,17.92
2024-03-14T22:53:43.061Z,17.90
2024-03-14T22:56:31.565Z,17.87
2024-03-14T22:59:19.448Z,17.92
2024-03-14T23:02:07.781Z,17.95
2024-03-14T23:04:55.567Z,17.96
2024-03-14T23:07:43.281Z,17.89
2024-03-14T23:10:33.691Z,17.88
2024-03-14T23:13:29.911Z,17.84
2024-03-14T23:16:19.629Z,17.81
2024-03-14T23:19:09.091Z,17.70
2024-03-14T23:21:57.839Z,17.64
2024-03-14T23:24:47.678Z,17.56
2024-03-14T23:27:40.388Z,17.48
2024-03-14T23:30:30.981Z,17.38
2024-03-14T23:33:19.320Z,17.32
2024-03-14T23:36:08.687Z,17.27
2024-03-14T23:38:58.837Z,17.25
2024-03-14T23:41:48.507Z,17.14
2024-03-14T23:44:36.300Z,17.12
2024-03-14T23:47:24.179Z,17.11
2024-03-14T23:50:20.578Z,17.03
2024-03-14T23:53:09.173Z,17.02
2024-03-14T23:55:56.894Z,16.96
2024-03-14T23:58:46.428Z,16.94
